Aeroporto :
LOGIN :

Iscrizione | Disclaimer

   EN    FR    IT 

 










Sommario :    VFR   VFR Marginale   IFR   IFR Intensivo   IFR Molto Intensivo
Visibilità : 
Base nubi : 
>= 8 km
>= 3000ft
5 / 8 km
1000 / 3000 ft
1500m / 5 km
500 / 1000 ft
800 / 1500m
200 / 500 ft
< 800m
< 200 ft
Simboli :   Temporali  Nebbia  Neve Forte  Precipitazioni Forti  Vento > 20 kt
SIGMETs :   Varie  Temporali  Ghiacco  Turbolenza  Onda orograficha  Ceneri Vulcaniche







- Altitudine del aeroporto : 782 ft
- Codice IATA : BGY


LIME - Orio al Serio International - Bergamo

ULTIMO METAR :
  • 240450Z 36004KT 320V020 CAVOK 14/12 Q1014 NOSIG

METARs OBSOLETI :
  • 240420Z 01005KT 9999 FEW060 14/12 Q1014 NOSIG
  • 240350Z 36004KT CAVOK 14/12 Q1014 NOSIG
  • 240320Z 35003KT CAVOK 14/12 Q1014 NOSIG
  • 240250Z 01004KT 320V030 CAVOK 14/12 Q1014 NOSIG
  • 240220Z 01004KT CAVOK 15/12 Q1014 NOSIG

TAF TAF LIME
Valido dal 24 a 00 ore il 25 a 00 ore UTC


232300Z 2400/2424 VRB05KT 9999 SCT040
TEMPO 2414/2424 TSRA
Nessun NOTAM noto per questo aeroporto.



MetMap, La meteo Aeronautica in un colpo d'occhio ! - Copyright ORBIFLY Dicembre 2007 - Disclaimer

ORBIFLY MET'MAP TEAM :

Programmazione e sviluppo : Alexandra Zaïnal
Concezione e sviluppo : Baudouin d'Aumeries
Co-Programmazione e sviluppo : Marc-Olivier Méhu
Supporto tecnico e logistico : Manuel Goepfert
Aiuto per la traduzione : Arnaldo La Scala

Contatto : metmap@orbifly.com




FONTI E CREDITI :

   NOAA